METAR AND TAF INFORMATION
METAR FOR MHCA
ADDS - METARS form results

(1548 UTC 20 January 2019)
Data provider http://aviationweather.gov/metar/data/
 
METAR text: MHCA 201500Z 10003KT 9999 SCT027 24/19 Q1019 HZ
Conditions at: MHCA (CATACAMAS , HN) observed 1500 UTC 20 January 2019
Temperature: 24.0°C (75°F)
Dewpoint: 19.0°C (66°F) [RH = 74%]
Pressure (altimeter): 30.09 inches Hg (1019.0 mb)
Winds: from the E (100 degrees) at 3 MPH (3 knots; 1.5 m/s)
Visibility: 6 or more miles (10+ km)
Ceiling: at least 12,000 feet AGL
Clouds: scattered clouds at 2700 feet AGL
Weather: HZ  (haze)

 AIRPORT MAP

Esri Leaflet Quickstart
 RUNWAY INFORMATION

 AIRPORT FREQUENCIES

 AIRPORT NEAR NAVIGATION AIDS



Powered by Virtual Airlines Manager [v2.6.2]